Time;durP1;ratioP1;P1;durP2;ratioP2;P2;SDS_P1;SDS_P2;PMS_P1;PMS_P2;Temp;Humidity;BMP_temperature;BMP_pressure;BME280_temperature;BME280_humidity;BME280_pressure;Samples;Min_cycle;Max_cycle;Signal;HPM_P1;HPM_P2
2023/04/26 00:00:32;;;;;;;5.57;1.67;;;;;;;;;;4992146;28;20018;-70
2023/04/26 00:02:59;;;;;;;6.32;1.60;;;;;;;;;;4977988;28;20031;-69
2023/04/26 00:05:24;;;;;;;6.03;1.65;;;;;;;;;;4972715;28;20023;-70
2023/04/26 00:07:49;;;;;;;7.13;1.87;;;;;;;;;;4979168;28;20482;-68
2023/04/26 00:10:14;;;;;;;4.77;1.77;;;;;;;;;;4988949;28;20022;-70
2023/04/26 00:12:40;;;;;;;8.03;1.60;;;;;;;;;;4975715;28;20414;-68
2023/04/26 00:15:06;;;;;;;7.17;1.90;;;;;;;;;;4982362;28;20038;-68
2023/04/26 00:17:31;;;;;;;7.63;2.13;;;;;;;;;;4986495;28;20032;-70
2023/04/26 00:19:56;;;;;;;5.25;1.60;;;;;;;;;;4988976;28;20097;-70
2023/04/26 00:22:22;;;;;;;8.55;2.13;;;;;;;;;;4985773;28;20030;-69
2023/04/26 00:24:47;;;;;;;6.55;1.67;;;;;;;;;;4981178;28;20039;-69
2023/04/26 00:27:12;;;;;;;6.75;2.40;;;;;;;;;;4983637;28;20022;-71
2023/04/26 00:29:38;;;;;;;6.60;2.00;;;;;;;;;;4980918;28;20390;-69
2023/04/26 00:32:03;;;;;;;6.17;1.80;;;;;;;;;;4980313;28;20022;-69
2023/04/26 00:34:35;;;;;;;5.13;1.80;;;;;;;;;;4983937;28;20018;-69
2023/04/26 00:37:00;;;;;;;5.43;1.55;;;;;;;;;;4983164;28;20406;-69
2023/04/26 00:39:26;;;;;;;5.38;1.63;;;;;;;;;;4990637;28;20022;-69
2023/04/26 00:41:51;;;;;;;5.35;1.70;;;;;;;;;;4979572;28;20027;-73
2023/04/26 00:44:16;;;;;;;7.03;1.83;;;;;;;;;;4985930;28;20375;-69
2023/04/26 00:46:42;;;;;;;7.55;2.00;;;;;;;;;;4982723;28;20021;-70
2023/04/26 00:49:07;;;;;;;8.63;1.73;;;;;;;;;;4988837;28;20026;-71
2023/04/26 00:51:32;;;;;;;6.60;1.73;;;;;;;;;;4988051;28;20594;-69
2023/04/26 00:53:58;;;;;;;4.38;1.50;;;;;;;;;;4977008;28;20026;-72
2023/04/26 00:56:23;;;;;;;5.47;1.50;;;;;;;;;;4989033;28;20030;-71
2023/04/26 00:58:48;;;;;;;7.90;1.77;;;;;;;;;;4983163;28;20034;-70
2023/04/26 01:01:14;;;;;;;6.00;1.70;;;;;;;;;;4975720;28;20021;-69
2023/04/26 01:03:39;;;;;;;5.23;1.70;;;;;;;;;;4986195;28;20145;-72
2023/04/26 01:06:04;;;;;;;5.17;1.50;;;;;;;;;;4982200;28;20521;-68
2023/04/26 01:08:29;;;;;;;5.90;2.10;;;;;;;;;;4988596;28;20026;-70
2023/04/26 01:10:55;;;;;;;5.17;1.70;;;;;;;;;;4978136;28;20026;-68
2023/04/26 01:13:20;;;;;;;4.68;1.70;;;;;;;;;;4978819;28;20027;-68
2023/04/26 01:15:46;;;;;;;6.10;1.80;;;;;;;;;;4981591;28;20044;-70
2023/04/26 01:18:12;;;;;;;5.88;1.77;;;;;;;;;;4984904;28;20041;-70
2023/04/26 01:20:38;;;;;;;5.72;1.80;;;;;;;;;;4985149;28;20023;-70
2023/04/26 01:23:03;;;;;;;6.53;1.73;;;;;;;;;;4979227;28;20385;-70
2023/04/26 01:25:29;;;;;;;6.20;1.90;;;;;;;;;;4977285;28;20430;-70
2023/04/26 01:27:54;;;;;;;5.93;1.80;;;;;;;;;;4984099;28;20027;-69
2023/04/26 01:30:19;;;;;;;5.10;1.73;;;;;;;;;;4988414;28;20255;-69
2023/04/26 01:32:44;;;;;;;5.93;1.90;;;;;;;;;;4978561;28;20392;-70
2023/04/26 01:35:10;;;;;;;7.28;1.92;;;;;;;;;;4978661;28;20069;-70
2023/04/26 01:37:35;;;;;;;6.50;1.67;;;;;;;;;;4982011;28;20375;-68
2023/04/26 01:40:00;;;;;;;9.15;1.88;;;;;;;;;;4985141;28;20018;-72
2023/04/26 01:42:26;;;;;;;5.93;1.80;;;;;;;;;;4990776;28;20486;-70
2023/04/26 01:44:51;;;;;;;4.47;1.63;;;;;;;;;;4989912;28;20081;-72
2023/04/26 01:47:16;;;;;;;9.73;1.70;;;;;;;;;;4978189;28;20478;-73
2023/04/26 01:49:41;;;;;;;4.45;1.58;;;;;;;;;;4994626;28;20045;-71
2023/04/26 01:52:06;;;;;;;8.20;1.80;;;;;;;;;;4979844;28;20015;-72
2023/04/26 01:54:31;;;;;;;8.60;1.60;;;;;;;;;;4974403;28;20054;-70
2023/04/26 01:56:57;;;;;;;9.18;2.00;;;;;;;;;;4976845;28;20477;-71
2023/04/26 01:59:22;;;;;;;8.57;1.60;;;;;;;;;;4994593;28;20411;-70
2023/04/26 02:01:47;;;;;;;8.00;1.92;;;;;;;;;;4982403;28;20019;-70
2023/04/26 02:04:12;;;;;;;6.27;1.60;;;;;;;;;;4974277;28;20105;-73
2023/04/26 02:06:37;;;;;;;5.90;1.83;;;;;;;;;;4983435;28;20114;-70
2023/04/26 02:09:03;;;;;;;5.53;1.70;;;;;;;;;;4977448;28;20106;-71
2023/04/26 02:11:28;;;;;;;10.82;2.67;;;;;;;;;;4980310;28;20026;-70
2023/04/26 02:13:53;;;;;;;7.57;1.93;;;;;;;;;;4983525;28;20102;-71
2023/04/26 02:16:18;;;;;;;5.63;1.80;;;;;;;;;;4983964;28;20061;-70
2023/04/26 02:18:43;;;;;;;7.13;2.03;;;;;;;;;;4981393;28;20042;-71
2023/04/26 02:21:10;;;;;;;8.88;2.05;;;;;;;;;;4985136;28;20026;-71
2023/04/26 02:23:35;;;;;;;5.97;1.80;;;;;;;;;;4985222;28;20026;-75
2023/04/26 02:26:00;;;;;;;4.70;1.83;;;;;;;;;;4983115;28;20076;-71
2023/04/26 02:28:26;;;;;;;7.75;1.70;;;;;;;;;;4985311;28;20129;-72
2023/04/26 02:30:51;;;;;;;7.67;1.70;;;;;;;;;;4994320;28;20478;-71
2023/04/26 02:33:16;;;;;;;6.60;1.83;;;;;;;;;;4993287;28;20449;-73
2023/04/26 02:35:41;;;;;;;8.43;1.90;;;;;;;;;;4982340;28;20230;-69
2023/04/26 02:38:06;;;;;;;6.55;1.80;;;;;;;;;;4975983;28;20537;-70
2023/04/26 02:40:32;;;;;;;5.33;1.60;;;;;;;;;;4992003;28;20038;-69
2023/04/26 02:42:57;;;;;;;5.75;2.03;;;;;;;;;;4987871;28;20077;-73
2023/04/26 02:45:22;;;;;;;5.87;1.53;;;;;;;;;;4978176;28;20583;-69
2023/04/26 02:47:47;;;;;;;5.43;1.50;;;;;;;;;;4986860;28;20030;-71
2023/04/26 02:50:12;;;;;;;6.13;1.90;;;;;;;;;;4985777;28;20127;-70
2023/04/26 02:52:37;;;;;;;6.63;1.90;;;;;;;;;;4982559;28;20475;-70
2023/04/26 02:55:03;;;;;;;6.63;1.90;;;;;;;;;;4973040;28;20019;-70
2023/04/26 02:57:28;;;;;;;8.93;2.03;;;;;;;;;;4980498;28;20026;-74
2023/04/26 02:59:54;;;;;;;7.90;1.97;;;;;;;;;;4992740;28;20029;-72
2023/04/26 03:02:20;;;;;;;9.52;1.70;;;;;;;;;;4984161;28;20033;-72
2023/04/26 03:04:46;;;;;;;7.15;1.90;;;;;;;;;;4989280;28;20018;-72
2023/04/26 03:07:11;;;;;;;4.65;1.60;;;;;;;;;;4981013;28;20030;-71
2023/04/26 03:09:37;;;;;;;6.78;1.73;;;;;;;;;;4981907;28;20031;-71
2023/04/26 03:12:03;;;;;;;5.47;1.73;;;;;;;;;;4988181;28;20370;-70
2023/04/26 03:14:28;;;;;;;7.63;2.10;;;;;;;;;;4983017;28;20085;-70
2023/04/26 03:16:53;;;;;;;4.77;1.70;;;;;;;;;;4973592;28;20549;-69
2023/04/26 03:19:18;;;;;;;6.20;1.75;;;;;;;;;;4983318;28;20026;-70
2023/04/26 03:21:43;;;;;;;7.22;1.95;;;;;;;;;;4979045;28;20041;-73
2023/04/26 03:24:10;;;;;;;6.22;2.08;;;;;;;;;;4986575;28;20054;-70
2023/04/26 03:26:35;;;;;;;7.13;1.83;;;;;;;;;;4992619;28;20049;-69
2023/04/26 03:29:01;;;;;;;6.68;2.10;;;;;;;;;;4986616;28;20431;-69
2023/04/26 03:31:26;;;;;;;8.25;2.42;;;;;;;;;;4986500;28;20030;-72
2023/04/26 03:33:51;;;;;;;7.30;2.30;;;;;;;;;;4984250;28;20018;-70
2023/04/26 03:36:16;;;;;;;6.30;1.90;;;;;;;;;;4973390;28;20022;-73
2023/04/26 03:38:41;;;;;;;7.57;1.90;;;;;;;;;;4981510;28;20101;-70
2023/04/26 03:41:07;;;;;;;5.17;1.50;;;;;;;;;;4984928;28;20038;-70
2023/04/26 03:43:32;;;;;;;7.67;2.00;;;;;;;;;;4988316;28;20038;-71
2023/04/26 03:45:57;;;;;;;7.07;1.73;;;;;;;;;;4973328;28;20105;-69
2023/04/26 03:48:22;;;;;;;7.95;1.80;;;;;;;;;;4981622;28;20041;-71
2023/04/26 03:50:47;;;;;;;8.25;1.90;;;;;;;;;;4979918;28;20034;-69
2023/04/26 03:53:12;;;;;;;7.07;1.80;;;;;;;;;;4984048;28;20098;-71
2023/04/26 03:55:38;;;;;;;7.28;1.92;;;;;;;;;;4980971;28;20053;-70
2023/04/26 03:58:06;;;;;;;6.57;1.40;;;;;;;;;;4973096;28;20011;-69
2023/04/26 04:00:32;;;;;;;5.43;1.80;;;;;;;;;;4974926;28;20030;-70
2023/04/26 04:02:57;;;;;;;6.82;1.60;;;;;;;;;;4987584;28;20026;-69
2023/04/26 04:05:22;;;;;;;6.88;1.67;;;;;;;;;;4986190;28;20449;-71
2023/04/26 04:07:48;;;;;;;7.77;2.07;;;;;;;;;;4975719;28;20030;-70
2023/04/26 04:10:13;;;;;;;5.53;2.00;;;;;;;;;;4991273;28;20025;-70
2023/04/26 04:12:38;;;;;;;8.68;1.90;;;;;;;;;;4989516;28;20026;-69
2023/04/26 04:15:03;;;;;;;8.45;2.05;;;;;;;;;;4982347;28;20407;-70
2023/04/26 04:17:28;;;;;;;8.43;1.88;;;;;;;;;;4982063;28;20058;-70
2023/04/26 04:19:54;;;;;;;7.28;1.85;;;;;;;;;;4982906;28;20015;-69
2023/04/26 04:22:19;;;;;;;10.13;2.17;;;;;;;;;;4984997;28;20038;-70
2023/04/26 04:24:46;;;;;;;10.82;1.98;;;;;;;;;;4983995;28;20057;-69
2023/04/26 04:27:11;;;;;;;10.05;1.88;;;;;;;;;;4979890;28;20490;-70
2023/04/26 04:29:36;;;;;;;7.07;1.80;;;;;;;;;;4983714;28;20069;-71
2023/04/26 04:32:01;;;;;;;7.05;1.67;;;;;;;;;;4982221;28;20034;-69
2023/04/26 04:34:26;;;;;;;6.40;1.60;;;;;;;;;;4979068;28;20038;-75
2023/04/26 04:36:51;;;;;;;6.22;1.40;;;;;;;;;;4981674;28;20057;-70
2023/04/26 04:39:17;;;;;;;8.15;2.05;;;;;;;;;;4974140;28;20359;-72
2023/04/26 04:41:48;;;;;;;7.93;1.90;;;;;;;;;;4984454;28;20083;-70
2023/04/26 04:44:15;;;;;;;5.47;1.30;;;;;;;;;;4983927;28;20026;-72
2023/04/26 04:46:40;;;;;;;4.93;1.38;;;;;;;;;;4979465;28;20042;-71
2023/04/26 04:49:08;;;;;;;9.90;2.28;;;;;;;;;;4986010;28;20018;-72
2023/04/26 04:51:34;;;;;;;7.50;1.63;;;;;;;;;;4979059;28;20034;-73
2023/04/26 04:54:07;;;;;;;5.63;1.45;;;;;;;;;;4977920;28;20031;-72
2023/04/26 04:56:32;;;;;;;6.65;1.60;;;;;;;;;;4978069;28;20034;-70
2023/04/26 04:58:57;;;;;;;9.50;1.80;;;;;;;;;;4979252;28;20038;-73
2023/04/26 05:01:23;;;;;;;8.60;1.75;;;;;;;;;;4975118;28;20128;-69
2023/04/26 05:03:48;;;;;;;8.95;1.60;;;;;;;;;;4981738;28;20047;-73
2023/04/26 05:06:13;;;;;;;8.55;1.67;;;;;;;;;;4983347;28;20477;-69
2023/04/26 05:08:38;;;;;;;6.00;1.55;;;;;;;;;;4983597;28;20085;-72
2023/04/26 05:11:03;;;;;;;6.67;1.70;;;;;;;;;;4987570;28;20046;-71
2023/04/26 05:13:28;;;;;;;7.03;1.50;;;;;;;;;;4982326;28;20083;-70
2023/04/26 05:15:53;;;;;;;10.15;1.90;;;;;;;;;;4981180;28;20059;-74
2023/04/26 05:18:19;;;;;;;7.38;2.05;;;;;;;;;;4981927;28;20397;-69
2023/04/26 05:20:44;;;;;;;6.95;1.88;;;;;;;;;;4981244;28;20146;-69
2023/04/26 05:23:09;;;;;;;6.57;1.70;;;;;;;;;;4983293;28;20105;-69
2023/04/26 05:25:37;;;;;;;9.57;2.20;;;;;;;;;;4979146;28;20042;-70
2023/04/26 05:28:02;;;;;;;5.90;1.67;;;;;;;;;;4985847;28;20033;-72
2023/04/26 05:30:27;;;;;;;8.60;2.15;;;;;;;;;;4987807;28;20386;-71
2023/04/26 05:32:55;;;;;;;8.50;1.88;;;;;;;;;;4987673;28;20034;-70
2023/04/26 05:35:20;;;;;;;5.70;1.52;;;;;;;;;;4989039;28;20034;-71
2023/04/26 05:37:46;;;;;;;8.43;1.87;;;;;;;;;;4983776;28;20026;-69
2023/04/26 05:40:11;;;;;;;8.03;1.87;;;;;;;;;;4991298;28;20418;-71
2023/04/26 05:42:36;;;;;;;7.15;1.70;;;;;;;;;;4990985;28;20498;-70
2023/04/26 05:45:01;;;;;;;7.32;1.92;;;;;;;;;;4992332;28;20026;-72
2023/04/26 05:47:26;;;;;;;5.73;1.80;;;;;;;;;;4990688;28;20397;-69
2023/04/26 05:49:52;;;;;;;10.20;1.87;;;;;;;;;;4980241;28;20789;-70
2023/04/26 05:52:17;;;;;;;10.70;1.80;;;;;;;;;;4971083;28;20026;-72
2023/04/26 05:54:42;;;;;;;9.10;1.90;;;;;;;;;;4971567;28;20050;-71
2023/04/26 05:57:07;;;;;;;6.60;1.90;;;;;;;;;;4971772;28;20018;-71
2023/04/26 05:59:35;;;;;;;6.78;1.70;;;;;;;;;;4972157;28;20018;-71
2023/04/26 06:02:00;;;;;;;9.27;1.70;;;;;;;;;;4984478;28;20338;-72
2023/04/26 06:04:25;;;;;;;8.30;2.17;;;;;;;;;;4987197;28;20022;-72
2023/04/26 06:06:50;;;;;;;7.20;1.87;;;;;;;;;;4985111;28;20058;-69
2023/04/26 06:09:15;;;;;;;9.77;1.90;;;;;;;;;;4985263;28;20393;-72
2023/04/26 06:11:41;;;;;;;7.93;2.22;;;;;;;;;;4979196;28;20102;-62
2023/04/26 06:14:06;;;;;;;8.82;2.63;;;;;;;;;;4975936;28;20031;-63
2023/04/26 06:16:31;;;;;;;8.70;2.37;;;;;;;;;;4975031;28;20489;-63
2023/04/26 06:18:56;;;;;;;8.73;2.20;;;;;;;;;;4982237;28;20022;-62
2023/04/26 06:21:21;;;;;;;6.50;1.83;;;;;;;;;;4989317;28;20555;-62
2023/04/26 06:23:46;;;;;;;5.73;1.53;;;;;;;;;;4986099;28;20014;-62
2023/04/26 06:26:11;;;;;;;9.15;1.85;;;;;;;;;;4979764;28;20141;-61
2023/04/26 06:28:37;;;;;;;8.53;1.83;;;;;;;;;;4976514;28;20027;-62
2023/04/26 06:31:02;;;;;;;9.10;1.77;;;;;;;;;;4991062;28;20498;-61
2023/04/26 06:33:27;;;;;;;11.97;2.10;;;;;;;;;;4984156;28;20015;-61
2023/04/26 06:35:52;;;;;;;10.77;1.88;;;;;;;;;;4988108;28;20025;-62
2023/04/26 06:38:17;;;;;;;7.97;2.00;;;;;;;;;;4987702;28;20052;-62
2023/04/26 06:40:42;;;;;;;4.82;1.38;;;;;;;;;;4982372;28;20548;-64
2023/04/26 06:43:08;;;;;;;10.10;1.95;;;;;;;;;;4988298;28;20039;-64
2023/04/26 06:45:33;;;;;;;10.73;2.10;;;;;;;;;;4989481;28;20014;-64
2023/04/26 06:47:59;;;;;;;8.38;2.30;;;;;;;;;;4992603;28;20130;-64
2023/04/26 06:50:25;;;;;;;6.20;1.48;;;;;;;;;;4989434;28;20030;-63
2023/04/26 06:52:50;;;;;;;10.02;1.65;;;;;;;;;;4985570;28;20022;-63
2023/04/26 06:55:15;;;;;;;12.23;2.23;;;;;;;;;;4991224;28;20482;-63
2023/04/26 06:57:40;;;;;;;9.43;1.92;;;;;;;;;;4984913;28;20110;-64
2023/04/26 07:00:06;;;;;;;7.55;1.63;;;;;;;;;;4986682;28;20022;-63
2023/04/26 07:02:31;;;;;;;9.45;2.20;;;;;;;;;;4980538;28;20953;-63
2023/04/26 07:04:56;;;;;;;10.37;1.80;;;;;;;;;;4989942;28;20121;-64
2023/04/26 07:07:21;;;;;;;9.57;1.70;;;;;;;;;;4984988;28;20022;-70
2023/04/26 07:09:46;;;;;;;9.23;1.53;;;;;;;;;;4981567;28;20128;-70
2023/04/26 07:12:12;;;;;;;15.25;1.92;;;;;;;;;;4977819;28;20030;-70
2023/04/26 07:14:39;;;;;;;7.00;1.50;;;;;;;;;;4985199;28;20129;-71
2023/04/26 07:17:04;;;;;;;8.38;1.40;;;;;;;;;;4992565;28;20050;-70
2023/04/26 07:19:30;;;;;;;7.90;1.73;;;;;;;;;;4980324;28;20086;-74
2023/04/26 07:21:55;;;;;;;7.47;1.70;;;;;;;;;;4983310;28;20014;-73
2023/04/26 07:24:20;;;;;;;6.70;1.50;;;;;;;;;;4984070;28;20042;-70
2023/04/26 07:26:45;;;;;;;10.23;1.90;;;;;;;;;;4973699;28;20085;-69
2023/04/26 07:29:11;;;;;;;7.50;1.60;;;;;;;;;;4973820;28;20022;-71
2023/04/26 07:31:36;;;;;;;7.07;1.98;;;;;;;;;;4973835;28;20027;-70
2023/04/26 07:34:01;;;;;;;8.88;1.67;;;;;;;;;;4974306;28;20171;-70
2023/04/26 07:36:27;;;;;;;9.80;1.70;;;;;;;;;;4983784;28;20030;-70
2023/04/26 07:38:52;;;;;;;9.07;2.00;;;;;;;;;;4973664;28;20110;-70
2023/04/26 07:41:17;;;;;;;8.15;1.83;;;;;;;;;;4972982;28;20034;-71
2023/04/26 07:43:43;;;;;;;7.17;1.40;;;;;;;;;;4973008;28;20450;-70
2023/04/26 07:46:08;;;;;;;9.52;2.17;;;;;;;;;;4981792;28;20034;-71
2023/04/26 07:48:33;;;;;;;5.97;1.60;;;;;;;;;;4983631;28;20122;-71
2023/04/26 07:51:07;;;;;;;8.48;1.67;;;;;;;;;;4979172;28;20494;-70
2023/04/26 07:53:32;;;;;;;9.65;1.80;;;;;;;;;;4972919;28;20059;-70
2023/04/26 07:55:57;;;;;;;12.70;2.10;;;;;;;;;;4973219;28;20059;-70
2023/04/26 07:58:22;;;;;;;11.48;2.15;;;;;;;;;;4979565;28;20101;-70
2023/04/26 08:00:47;;;;;;;9.50;1.60;;;;;;;;;;4985092;28;20026;-67
2023/04/26 08:03:16;;;;;;;6.82;1.13;;;;;;;;;;4992337;28;20026;-70
2023/04/26 08:05:41;;;;;;;9.20;1.67;;;;;;;;;;4994233;28;20109;-70
2023/04/26 08:08:07;;;;;;;5.13;1.03;;;;;;;;;;4995385;28;20073;-70
2023/04/26 08:10:32;;;;;;;9.77;1.60;;;;;;;;;;4996627;28;20093;-71
2023/04/26 08:13:01;;;;;;;9.03;1.20;;;;;;;;;;4989172;28;20508;-69
2023/04/26 08:15:26;;;;;;;7.05;1.30;;;;;;;;;;4984239;28;20033;-71
2023/04/26 08:17:52;;;;;;;5.88;1.40;;;;;;;;;;4992762;28;20023;-70
2023/04/26 08:20:17;;;;;;;6.60;1.40;;;;;;;;;;4993164;28;20043;-70
2023/04/26 08:22:42;;;;;;;7.43;1.23;;;;;;;;;;4992228;28;20053;-70
2023/04/26 08:25:09;;;;;;;10.40;1.70;;;;;;;;;;4995036;28;20041;-71
2023/04/26 08:27:35;;;;;;;9.27;1.60;;;;;;;;;;5000640;28;20022;-70
2023/04/26 08:30:00;;;;;;;9.45;1.40;;;;;;;;;;4994141;28;20019;-72
2023/04/26 08:32:25;;;;;;;7.88;1.45;;;;;;;;;;4997769;28;20030;-70
2023/04/26 08:34:51;;;;;;;6.78;1.35;;;;;;;;;;5000674;28;20426;-71
2023/04/26 08:37:16;;;;;;;6.70;1.42;;;;;;;;;;4996968;28;20017;-71
2023/04/26 08:39:41;;;;;;;7.05;1.48;;;;;;;;;;4993097;28;20046;-70
2023/04/26 08:42:13;;;;;;;7.88;1.48;;;;;;;;;;4991490;28;20030;-69
2023/04/26 08:44:40;;;;;;;9.07;1.38;;;;;;;;;;4981137;28;20489;-70
2023/04/26 08:47:07;;;;;;;6.05;1.30;;;;;;;;;;4972551;28;20030;-68
2023/04/26 08:49:38;;;;;;;6.38;1.48;;;;;;;;;;4972884;28;20019;-71
2023/04/26 08:52:07;;;;;;;9.40;1.50;;;;;;;;;;4971397;28;20403;-70
2023/04/26 08:54:33;;;;;;;7.90;1.38;;;;;;;;;;4975654;28;20029;-70
2023/04/26 08:56:58;;;;;;;;;;;;;;;;;;4984224;28;20027;-68
2023/04/26 08:59:24;;;;;;;5.47;1.30;;;;;;;;;;4982536;28;19909;-69
2023/04/26 09:01:49;;;;;;;7.55;1.23;;;;;;;;;;4972529;28;20027;-68
2023/04/26 09:04:14;;;;;;;6.45;1.40;;;;;;;;;;4971556;28;20256;-69
2023/04/26 09:06:40;;;;;;;6.33;1.40;;;;;;;;;;4972583;28;20022;-68
2023/04/26 09:09:07;;;;;;;6.60;1.38;;;;;;;;;;4972099;28;20426;-70
2023/04/26 09:11:51;;;;;;;13.43;1.52;;;;;;;;;;4972239;28;20055;-68
2023/04/26 09:14:16;;;;;;;;;;;;;;;;;;4983317;28;20088;-70
2023/04/26 09:16:41;;;;;;;7.27;1.30;;;;;;;;;;4972719;28;19910;-68
2023/04/26 09:19:06;;;;;;;9.40;1.50;;;;;;;;;;4972895;28;20027;-70
2023/04/26 09:21:32;;;;;;;6.57;1.50;;;;;;;;;;4971938;28;20039;-71
2023/04/26 09:23:58;;;;;;;8.43;1.50;;;;;;;;;;4971274;28;20061;-70
2023/04/26 09:26:23;;;;;;;6.60;1.50;;;;;;;;;;4971847;28;20466;-70
2023/04/26 09:28:49;;;;;;;5.88;1.52;;;;;;;;;;4974758;28;20014;-70
2023/04/26 09:31:34;;;;;;;6.28;1.27;;;;;;;;;;4983765;28;20046;-70
2023/04/26 09:33:59;;;;;;;6.78;1.42;;;;;;;;;;4971510;28;20038;-71
2023/04/26 09:36:25;;;;;;;7.30;1.60;;;;;;;;;;4973458;28;20397;-70
2023/04/26 09:38:50;;;;;;;7.53;1.85;;;;;;;;;;4971879;28;20440;-70
2023/04/26 09:41:15;;;;;;;5.53;1.60;;;;;;;;;;4971421;28;20019;-71
2023/04/26 09:43:41;;;;;;;8.38;2.00;;;;;;;;;;4971417;28;20019;-70
2023/04/26 09:46:06;;;;;;;8.82;1.48;;;;;;;;;;4974049;28;20030;-70
2023/04/26 09:48:33;;;;;;;5.70;1.55;;;;;;;;;;4980986;28;20042;-70
2023/04/26 09:51:07;;;;;;;5.00;1.67;;;;;;;;;;4977891;28;20093;-68
2023/04/26 09:53:35;;;;;;;7.07;1.73;;;;;;;;;;4971719;28;20031;-71
2023/04/26 09:56:11;;;;;;;7.75;1.77;;;;;;;;;;4971808;28;20047;-70
2023/04/26 09:58:37;;;;;;;6.88;1.58;;;;;;;;;;4971651;28;20033;-70
2023/04/26 10:01:03;;;;;;;6.85;1.42;;;;;;;;;;4976409;28;20470;-69
2023/04/26 10:03:30;;;;;;;5.22;1.50;;;;;;;;;;4979983;28;20061;-69
2023/04/26 10:05:55;;;;;;;;;;;;;;;;;;4982042;28;20080;-70
2023/04/26 10:08:20;;;;;;;7.53;1.40;;;;;;;;;;4975316;28;19910;-71
2023/04/26 10:10:47;;;;;;;5.00;1.60;;;;;;;;;;4973957;28;20023;-69
2023/04/26 10:13:14;;;;;;;7.05;1.55;;;;;;;;;;4982201;28;20804;-70
2023/04/26 10:15:40;;;;;;;5.38;1.30;;;;;;;;;;4986058;28;20043;-70
2023/04/26 10:18:05;;;;;;;6.13;1.38;;;;;;;;;;4994651;28;20101;-70
2023/04/26 10:20:31;;;;;;;6.60;1.40;;;;;;;;;;4994428;28;20109;-70
2023/04/26 10:23:00;;;;;;;6.20;1.50;;;;;;;;;;4994046;28;20038;-71
2023/04/26 10:25:38;;;;;;;5.53;1.52;;;;;;;;;;4993385;28;20011;-70
2023/04/26 10:28:03;;;;;;;5.25;1.23;;;;;;;;;;4988262;28;20015;-70
2023/04/26 10:30:29;;;;;;;4.55;1.30;;;;;;;;;;4993099;28;20498;-70
2023/04/26 10:33:10;;;;;;;8.20;1.80;;;;;;;;;;4993642;28;20019;-70
2023/04/26 10:35:37;;;;;;;4.65;1.65;;;;;;;;;;4994290;28;20477;-72
2023/04/26 10:38:02;;;;;;;;;;;;;;;;;;4994406;28;20645;-70
2023/04/26 10:40:35;;;;;;;6.43;1.40;;;;;;;;;;4984843;28;20052;-70
2023/04/26 10:43:15;;;;;;;7.55;1.75;;;;;;;;;;4979618;28;20035;-71
2023/04/26 10:45:41;;;;;;;6.82;1.60;;;;;;;;;;4974548;28;20023;-70
2023/04/26 10:48:17;;;;;;;4.82;1.33;;;;;;;;;;4974899;28;20100;-69
2023/04/26 10:51:00;;;;;;;9.90;1.25;;;;;;;;;;4974534;28;20035;-70
2023/04/26 10:53:34;;;;;;;4.85;1.33;;;;;;;;;;4974095;28;20022;-70
2023/04/26 10:55:59;;;;;;;6.40;1.52;;;;;;;;;;4975116;28;20026;-68
2023/04/26 10:58:29;;;;;;;5.20;1.48;;;;;;;;;;4997306;28;20033;-69
2023/04/26 11:01:08;;;;;;;6.32;1.70;;;;;;;;;;4978744;28;20022;-69
2023/04/26 11:03:33;;;;;;;8.45;1.50;;;;;;;;;;4973918;28;20486;-69
2023/04/26 11:05:59;;;;;;;12.07;2.08;;;;;;;;;;4974652;28;20084;-69
2023/04/26 11:08:29;;;;;;;6.82;1.60;;;;;;;;;;4993417;28;20340;-69
2023/04/26 11:11:00;;;;;;;5.57;1.70;;;;;;;;;;4993751;28;20094;-69
2023/04/26 11:13:26;;;;;;;5.93;1.52;;;;;;;;;;4983606;28;20494;-70
2023/04/26 11:15:52;;;;;;;7.97;1.58;;;;;;;;;;4979796;28;20041;-68
2023/04/26 11:18:17;;;;;;;5.95;1.73;;;;;;;;;;4974087;28;20054;-69
2023/04/26 11:20:43;;;;;;;6.60;1.77;;;;;;;;;;4973816;28;20041;-69
2023/04/26 11:23:08;;;;;;;3.95;1.33;;;;;;;;;;4973382;28;20026;-70
2023/04/26 11:25:33;;;;;;;4.93;2.00;;;;;;;;;;4974708;28;20073;-70
2023/04/26 11:28:01;;;;;;;5.93;1.63;;;;;;;;;;4987819;28;20015;-70
2023/04/26 11:30:30;;;;;;;5.70;1.70;;;;;;;;;;4991429;28;20053;-70
2023/04/26 11:32:56;;;;;;;7.47;1.60;;;;;;;;;;4992766;28;20026;-71
2023/04/26 11:35:22;;;;;;;6.35;1.60;;;;;;;;;;4991926;28;20046;-69
2023/04/26 11:37:50;;;;;;;5.82;1.80;;;;;;;;;;4976340;28;20440;-69
2023/04/26 11:40:15;;;;;;;8.10;1.88;;;;;;;;;;4981537;28;20023;-71
2023/04/26 11:42:42;;;;;;;6.20;1.77;;;;;;;;;;4972900;28;20030;-70
2023/04/26 11:45:07;;;;;;;5.25;1.50;;;;;;;;;;4973650;28;20438;-71
2023/04/26 11:47:33;;;;;;;7.10;1.33;;;;;;;;;;4973650;28;20019;-70
2023/04/26 11:49:58;;;;;;;4.90;1.25;;;;;;;;;;4974241;28;20030;-71
2023/04/26 11:52:23;;;;;;;4.60;1.43;;;;;;;;;;4982199;28;20096;-71
2023/04/26 11:54:48;;;;;;;4.90;1.30;;;;;;;;;;4986144;28;20034;-70
2023/04/26 11:57:14;;;;;;;4.28;1.30;;;;;;;;;;4988632;28;20522;-68
2023/04/26 11:59:39;;;;;;;4.35;1.35;;;;;;;;;;4992348;28;20038;-69
2023/04/26 12:02:06;;;;;;;6.90;1.67;;;;;;;;;;4983694;28;20044;-70
2023/04/26 12:04:31;;;;;;;;;;;;;;;;;;4974549;28;20026;-69
2023/04/26 12:06:57;;;;;;;5.50;1.52;;;;;;;;;;4974603;28;19933;-70
2023/04/26 12:09:23;;;;;;;5.97;1.70;;;;;;;;;;4981055;28;20019;-69
2023/04/26 12:11:52;;;;;;;5.50;1.67;;;;;;;;;;4973078;28;20023;-71
2023/04/26 12:14:18;;;;;;;6.60;1.70;;;;;;;;;;4975608;28;20438;-70
2023/04/26 12:16:43;;;;;;;5.13;1.83;;;;;;;;;;4988301;28;20069;-70
2023/04/26 12:19:10;;;;;;;7.70;2.00;;;;;;;;;;4992427;28;20146;-70
2023/04/26 12:21:41;;;;;;;6.70;2.08;;;;;;;;;;4992497;28;20026;-70
2023/04/26 12:24:07;;;;;;;4.97;1.50;;;;;;;;;;4990717;28;20323;-70
2023/04/26 12:26:42;;;;;;;7.37;1.80;;;;;;;;;;4983571;28;20022;-71
2023/04/26 12:29:08;;;;;;;7.13;1.75;;;;;;;;;;4991170;28;20014;-70
2023/04/26 12:31:33;;;;;;;8.75;2.05;;;;;;;;;;4981917;28;20018;-70
2023/04/26 12:33:58;;;;;;;6.53;1.48;;;;;;;;;;4971808;28;20589;-70
2023/04/26 12:36:23;;;;;;;5.47;1.85;;;;;;;;;;4972869;28;20026;-70
2023/04/26 12:38:49;;;;;;;6.85;1.85;;;;;;;;;;4972710;28;20023;-70
2023/04/26 12:41:14;;;;;;;7.10;2.13;;;;;;;;;;4977892;28;20433;-70
2023/04/26 12:43:40;;;;;;;6.38;2.40;;;;;;;;;;4979541;28;20502;-70
2023/04/26 12:46:05;;;;;;;4.88;1.80;;;;;;;;;;4972484;28;20097;-69
2023/04/26 12:48:31;;;;;;;5.07;1.75;;;;;;;;;;4972370;28;20027;-70
2023/04/26 12:50:56;;;;;;;8.13;2.23;;;;;;;;;;4971951;28;20093;-70
2023/04/26 12:53:21;;;;;;;5.85;2.00;;;;;;;;;;4971628;28;20026;-70
2023/04/26 12:55:46;;;;;;;5.40;1.80;;;;;;;;;;4979120;28;20548;-70
2023/04/26 12:58:11;;;;;;;5.93;1.77;;;;;;;;;;4983760;28;20613;-69
2023/04/26 13:00:36;;;;;;;6.78;2.10;;;;;;;;;;4992542;28;20022;-71
2023/04/26 13:03:01;;;;;;;6.75;1.92;;;;;;;;;;4993112;28;20026;-70
2023/04/26 13:05:28;;;;;;;8.18;2.20;;;;;;;;;;4992377;28;20580;-70
2023/04/26 13:07:53;;;;;;;;;;;;;;;;;;4980281;28;20014;-70
2023/04/26 13:10:18;;;;;;;5.07;1.92;;;;;;;;;;4983528;28;19941;-70
2023/04/26 13:12:44;;;;;;;7.55;1.95;;;;;;;;;;4986233;28;20355;-70
2023/04/26 13:15:09;;;;;;;4.80;1.70;;;;;;;;;;4983553;28;20014;-70
2023/04/26 13:17:36;;;;;;;6.60;1.67;;;;;;;;;;4991563;28;20561;-70
2023/04/26 13:20:01;;;;;;;5.97;1.90;;;;;;;;;;4988673;28;20154;-70
2023/04/26 13:22:26;;;;;;;3.88;1.45;;;;;;;;;;4978857;28;20549;-70
2023/04/26 13:24:52;;;;;;;7.17;1.90;;;;;;;;;;4991220;28;20089;-70
2023/04/26 13:27:17;;;;;;;6.97;1.77;;;;;;;;;;4983289;28;20018;-70
2023/04/26 13:29:42;;;;;;;4.68;1.60;;;;;;;;;;4971817;28;20038;-70
2023/04/26 13:32:08;;;;;;;7.87;1.90;;;;;;;;;;4970281;28;20022;-71
2023/04/26 13:34:33;;;;;;;7.28;1.70;;;;;;;;;;4971008;28;20035;-69
2023/04/26 13:36:59;;;;;;;5.27;1.60;;;;;;;;;;4982006;28;20085;-69
2023/04/26 13:39:27;;;;;;;6.85;1.67;;;;;;;;;;4984504;28;20034;-69
2023/04/26 13:41:52;;;;;;;6.43;1.50;;;;;;;;;;4989370;28;20019;-70
2023/04/26 13:44:18;;;;;;;5.53;1.67;;;;;;;;;;4989944;28;20014;-70
2023/04/26 13:46:43;;;;;;;;;;;;;;;;;;4992346;28;20034;-70
2023/04/26 13:49:13;;;;;;;6.75;1.85;;;;;;;;;;4991570;28;19988;-70
2023/04/26 13:51:38;;;;;;;6.30;1.65;;;;;;;;;;4988738;28;20509;-70
2023/04/26 13:54:04;;;;;;;6.32;1.95;;;;;;;;;;4996546;28;20026;-69
2023/04/26 13:56:30;;;;;;;5.97;1.90;;;;;;;;;;4994562;28;20104;-70
2023/04/26 13:58:55;;;;;;;7.68;1.90;;;;;;;;;;4994194;28;20023;-70
2023/04/26 14:01:20;;;;;;;6.63;1.67;;;;;;;;;;4991979;28;20022;-70
2023/04/26 14:03:45;;;;;;;7.07;1.80;;;;;;;;;;4991483;28;20026;-70
2023/04/26 14:06:11;;;;;;;5.80;1.48;;;;;;;;;;4983792;28;20049;-70
2023/04/26 14:08:36;;;;;;;5.43;1.90;;;;;;;;;;4991533;28;20081;-70
2023/04/26 14:11:01;;;;;;;9.47;1.80;;;;;;;;;;4993885;28;20093;-70
2023/04/26 14:13:26;;;;;;;8.23;2.10;;;;;;;;;;4984937;28;20030;-69
2023/04/26 14:15:51;;;;;;;6.75;1.40;;;;;;;;;;4982490;28;20110;-70
2023/04/26 14:18:16;;;;;;;5.40;1.60;;;;;;;;;;4979458;28;20026;-70
2023/04/26 14:20:42;;;;;;;5.63;1.50;;;;;;;;;;4989760;28;20031;-70
2023/04/26 14:23:07;;;;;;;10.20;1.60;;;;;;;;;;4981177;28;20381;-70
2023/04/26 14:25:32;;;;;;;6.93;1.80;;;;;;;;;;4989696;28;20041;-70
2023/04/26 14:27:57;;;;;;;6.33;1.80;;;;;;;;;;4984659;28;20447;-70
2023/04/26 14:30:24;;;;;;;7.95;1.52;;;;;;;;;;4983151;28;20026;-70
2023/04/26 14:32:49;;;;;;;9.43;1.98;;;;;;;;;;4985883;28;20505;-70
2023/04/26 14:35:14;;;;;;;6.70;1.70;;;;;;;;;;4982344;28;20034;-70